Time;durP1;ratioP1;P1;durP2;ratioP2;P2;SDS_P1;SDS_P2;PMS_P1;PMS_P2;Temp;Humidity;BMP_temperature;BMP_pressure;BME280_temperature;BME280_humidity;BME280_pressure;Samples;Min_cycle;Max_cycle;Signal;HPM_P1;HPM_P2
2024/01/30 00:02:02;;;;;;;8.33;6.63;;;9.80;99.90;;;;;;5023481;28;20459;-29
2024/01/30 00:04:32;;;;;;;8.37;7.50;;;9.80;99.90;;;;;;5023393;28;20459;-29
2024/01/30 00:07:01;;;;;;;8.23;6.93;;;9.80;99.90;;;;;;5031326;28;20469;-28
2024/01/30 00:09:27;;;;;;;7.30;5.90;;;9.80;99.90;;;;;;5021955;28;21092;-29
2024/01/30 00:11:54;;;;;;;7.10;6.40;;;9.80;99.90;;;;;;5038317;28;20451;-28
2024/01/30 00:14:22;;;;;;;7.60;5.67;;;9.80;99.90;;;;;;5027396;28;20782;-32
2024/01/30 00:16:49;;;;;;;7.70;6.70;;;9.80;99.90;;;;;;5022938;28;20805;-28
2024/01/30 00:19:15;;;;;;;7.90;7.10;;;9.80;99.90;;;;;;5029198;28;20434;-29
2024/01/30 00:21:41;;;;;;;8.50;6.70;;;9.80;99.90;;;;;;5042093;28;21053;-29
2024/01/30 00:24:09;;;;;;;7.33;6.50;;;9.80;99.90;;;;;;5042887;28;20450;-31
2024/01/30 00:26:35;;;;;;;7.83;6.40;;;9.80;99.90;;;;;;5021991;28;20528;-28
2024/01/30 00:29:02;;;;;;;7.80;6.80;;;9.80;99.90;;;;;;5027039;28;20427;-30
2024/01/30 00:31:28;;;;;;;8.23;6.70;;;9.80;99.90;;;;;;5035539;28;21365;-31
2024/01/30 00:33:55;;;;;;;8.17;6.77;;;9.80;99.90;;;;;;5043231;28;20403;-31
2024/01/30 00:36:21;;;;;;;9.00;7.20;;;9.80;99.90;;;;;;5039955;28;20491;-27
2024/01/30 00:38:50;;;;;;;7.60;6.50;;;9.80;99.90;;;;;;5017524;28;20424;-31
2024/01/30 00:41:20;;;;;;;8.67;7.13;;;9.80;99.90;;;;;;5011928;28;20463;-31
2024/01/30 00:43:51;;;;;;;7.67;6.83;;;9.80;99.90;;;;;;5033980;28;20950;-30
2024/01/30 00:46:19;;;;;;;8.90;6.50;;;9.80;99.90;;;;;;5041171;28;20569;-26
2024/01/30 00:48:49;;;;;;;11.50;7.33;;;9.80;99.90;;;;;;5042726;28;20484;-27
2024/01/30 00:51:20;;;;;;;8.60;6.70;;;9.80;99.90;;;;;;5034988;28;21039;-30
2024/01/30 00:53:49;;;;;;;8.17;6.13;;;9.80;99.90;;;;;;5027471;28;20427;-26
2024/01/30 00:56:18;;;;;;;8.90;6.97;;;9.80;99.90;;;;;;5031209;28;21306;-34
2024/01/30 00:58:46;;;;;;;7.43;6.73;;;9.80;99.90;;;;;;5021085;28;20427;-32
2024/01/30 01:01:14;;;;;;;9.10;7.27;;;9.80;99.90;;;;;;5037520;28;21194;-27
2024/01/30 01:03:43;;;;;;;7.60;6.47;;;9.80;99.90;;;;;;5021319;28;20487;-28
2024/01/30 01:06:11;;;;;;;8.47;7.07;;;9.80;99.90;;;;;;5042167;28;20427;-32
2024/01/30 01:08:42;;;;;;;9.30;7.30;;;9.80;99.90;;;;;;5029023;28;20451;-32
2024/01/30 01:11:08;;;;;;;7.73;6.93;;;9.80;99.90;;;;;;5028079;28;20444;-34
2024/01/30 01:13:34;;;;;;;11.40;7.50;;;9.80;99.90;;;;;;5034769;28;21242;-34
2024/01/30 01:16:00;;;;;;;9.13;6.87;;;9.80;99.90;;;;;;5042671;28;20415;-29
2024/01/30 01:18:27;;;;;;;6.80;6.07;;;9.80;99.90;;;;;;5020398;28;20510;-31
2024/01/30 01:20:53;;;;;;;12.37;7.67;;;9.80;99.90;;;;;;5022477;28;20524;-29
2024/01/30 01:23:19;;;;;;;8.47;7.00;;;9.80;99.90;;;;;;5021917;28;20459;-29
2024/01/30 01:25:49;;;;;;;9.00;6.30;;;9.80;99.90;;;;;;5020421;28;20416;-29
2024/01/30 01:28:15;;;;;;;9.10;6.20;;;9.80;99.90;;;;;;5020010;28;20825;-28
2024/01/30 01:30:43;;;;;;;9.53;7.57;;;9.80;99.90;;;;;;5022175;28;20455;-27
2024/01/30 01:33:10;;;;;;;7.43;6.73;;;9.80;99.90;;;;;;5041101;28;20415;-28
2024/01/30 01:35:36;;;;;;;8.50;7.00;;;9.80;99.90;;;;;;5039964;28;21267;-31
2024/01/30 01:38:02;;;;;;;8.00;6.50;;;9.80;99.90;;;;;;5038634;28;20431;-33
2024/01/30 01:40:33;;;;;;;7.57;6.40;;;9.80;99.90;;;;;;5021752;28;20451;-31
2024/01/30 01:43:05;;;;;;;7.23;6.40;;;9.80;99.90;;;;;;5023896;28;20624;-34
2024/01/30 01:45:33;;;;;;;7.67;6.63;;;9.80;99.90;;;;;;5023454;28;20501;-33
2024/01/30 01:47:59;;;;;;;8.00;6.83;;;9.80;99.90;;;;;;5021587;28;20550;-26
2024/01/30 01:50:28;;;;;;;9.17;7.60;;;9.80;99.90;;;;;;5032678;28;20213;-29
2024/01/30 01:52:59;;;;;;;7.83;7.03;;;9.80;99.90;;;;;;5029885;28;20466;-31
2024/01/30 01:55:32;;;;;;;9.00;7.60;;;9.80;99.90;;;;;;5021448;28;20435;-28
2024/01/30 01:58:01;;;;;;;11.47;7.70;;;9.70;99.90;;;;;;5019791;28;20436;-33
2024/01/30 02:00:31;;;;;;;7.07;6.37;;;9.80;99.90;;;;;;5019876;28;20538;-29
2024/01/30 02:03:00;;;;;;;8.17;7.13;;;9.80;99.90;;;;;;5019719;28;20428;-32
2024/01/30 02:05:28;;;;;;;10.00;7.07;;;9.80;99.90;;;;;;5021001;28;20469;-32
2024/01/30 02:07:55;;;;;;;8.63;7.80;;;9.80;99.90;;;;;;5019632;28;20515;-30
2024/01/30 02:10:24;;;;;;;7.97;7.10;;;9.80;99.90;;;;;;5035915;28;20454;-29
2024/01/30 02:12:52;;;;;;;8.63;6.67;;;9.70;99.90;;;;;;5036489;28;20408;-30
2024/01/30 02:15:21;;;;;;;8.67;7.20;;;9.80;99.90;;;;;;5022154;28;20481;-26
2024/01/30 02:17:49;;;;;;;9.97;7.73;;;9.80;99.90;;;;;;5020608;28;20416;-34
2024/01/30 02:20:15;;;;;;;7.70;6.90;;;9.80;99.90;;;;;;5028499;28;20427;-32
2024/01/30 02:22:44;;;;;;;8.20;7.40;;;9.70;99.90;;;;;;5040692;28;21246;-26
2024/01/30 02:25:18;;;;;;;7.43;6.73;;;9.80;99.90;;;;;;5021154;28;21227;-30
2024/01/30 02:27:44;;;;;;;9.83;7.67;;;9.80;99.90;;;;;;5020358;28;20463;-31
2024/01/30 02:30:12;;;;;;;8.60;6.87;;;9.70;99.90;;;;;;5020084;28;20951;-29
2024/01/30 02:32:38;;;;;;;8.53;6.57;;;9.70;99.90;;;;;;5030454;28;20415;-26
2024/01/30 02:35:04;;;;;;;9.37;7.50;;;9.70;99.90;;;;;;5020580;28;20908;-31
2024/01/30 02:37:30;;;;;;;9.80;7.23;;;9.70;99.90;;;;;;5021406;28;21176;-30
2024/01/30 02:39:58;;;;;;;8.87;7.10;;;9.70;99.90;;;;;;5040438;28;21051;-24
2024/01/30 02:42:27;;;;;;;8.80;6.90;;;9.70;99.90;;;;;;5012054;28;20505;-29
2024/01/30 02:44:56;;;;;;;9.20;7.00;;;9.70;99.90;;;;;;5020318;28;20423;-31
2024/01/30 02:47:25;;;;;;;7.90;7.10;;;9.70;99.90;;;;;;5029182;28;20477;-29
2024/01/30 02:49:51;;;;;;;11.17;7.73;;;9.70;99.90;;;;;;5019908;28;20510;-27
2024/01/30 02:52:23;;;;;;;9.30;6.80;;;9.70;99.90;;;;;;5035380;28;20457;-26
2024/01/30 02:54:48;;;;;;;10.37;7.27;;;9.70;99.90;;;;;;5023731;28;20494;-30
2024/01/30 02:57:14;;;;;;;8.60;7.33;;;9.70;99.90;;;;;;5020399;28;20431;-29
2024/01/30 02:59:43;;;;;;;8.50;7.00;;;9.70;99.90;;;;;;5019059;28;20436;-33
2024/01/30 03:02:13;;;;;;;9.00;6.60;;;9.70;99.90;;;;;;5026405;28;21182;-28
2024/01/30 03:04:41;;;;;;;9.13;7.03;;;9.70;99.90;;;;;;5021126;28;20451;-26
2024/01/30 03:07:08;;;;;;;10.40;7.50;;;9.70;99.90;;;;;;5020515;28;21055;-29
2024/01/30 03:09:34;;;;;;;8.27;7.00;;;9.70;99.90;;;;;;5032732;28;20427;-33
2024/01/30 03:12:02;;;;;;;10.60;6.83;;;9.70;99.90;;;;;;5024062;28;21056;-31
2024/01/30 03:14:29;;;;;;;9.00;6.90;;;9.70;99.90;;;;;;5021471;28;20431;-29
2024/01/30 03:16:58;;;;;;;10.37;8.00;;;9.70;99.90;;;;;;5031646;28;20423;-30
2024/01/30 03:19:29;;;;;;;12.40;7.53;;;9.70;99.90;;;;;;5026900;28;20462;-27
2024/01/30 03:21:55;;;;;;;8.67;7.27;;;9.70;99.90;;;;;;5023534;28;20459;-26
2024/01/30 03:24:22;;;;;;;9.07;7.37;;;9.70;99.90;;;;;;5019264;28;20416;-25
2024/01/30 03:26:47;;;;;;;7.63;6.40;;;9.70;99.90;;;;;;5018820;28;20463;-28
2024/01/30 03:29:16;;;;;;;8.57;7.70;;;9.70;99.90;;;;;;5021744;28;20481;-28
2024/01/30 03:31:42;;;;;;;7.37;6.60;;;9.70;99.90;;;;;;5038576;28;20451;-30
2024/01/30 03:34:08;;;;;;;9.40;7.67;;;9.70;99.90;;;;;;5018423;28;20501;-29
2024/01/30 03:36:34;;;;;;;8.50;7.43;;;9.70;99.90;;;;;;5018868;28;20443;-32
2024/01/30 03:39:01;;;;;;;9.93;7.57;;;9.70;99.90;;;;;;5020228;28;20497;-30
2024/01/30 03:41:27;;;;;;;8.17;6.63;;;9.70;99.90;;;;;;5021018;28;20440;-29
2024/01/30 03:43:58;;;;;;;8.83;7.10;;;9.70;99.90;;;;;;5018246;28;20444;-33
2024/01/30 03:46:27;;;;;;;8.13;7.10;;;9.70;99.90;;;;;;5026429;28;20467;-29
2024/01/30 03:48:53;;;;;;;8.20;6.90;;;9.70;99.90;;;;;;5024642;28;20438;-29
2024/01/30 03:51:21;;;;;;;8.63;7.43;;;9.70;99.90;;;;;;5034666;28;20478;-30
2024/01/30 03:53:49;;;;;;;11.00;7.67;;;9.70;99.90;;;;;;5028767;28;20502;-37
2024/01/30 03:56:18;;;;;;;8.53;6.70;;;9.70;99.90;;;;;;5020657;28;20605;-29
2024/01/30 03:58:44;;;;;;;7.80;7.00;;;9.70;99.90;;;;;;5020389;28;20416;-29
2024/01/30 04:01:16;;;;;;;8.00;7.20;;;9.70;99.90;;;;;;5026590;28;20461;-32
2024/01/30 04:03:44;;;;;;;8.70;7.50;;;9.70;99.90;;;;;;5030029;28;20471;-27
2024/01/30 04:06:13;;;;;;;8.50;6.80;;;9.70;99.90;;;;;;5029483;28;20468;-28
2024/01/30 04:08:39;;;;;;;8.53;6.50;;;9.70;99.90;;;;;;5023387;28;20435;-30
2024/01/30 04:11:05;;;;;;;11.40;7.33;;;9.70;99.90;;;;;;4985005;28;20454;-28
2024/01/30 04:13:34;;;;;;;7.90;6.57;;;9.70;99.90;;;;;;5013433;28;20420;-31
2024/01/30 04:16:04;;;;;;;10.00;7.60;;;9.70;99.90;;;;;;5036673;28;20439;-26
2024/01/30 04:18:33;;;;;;;9.77;6.93;;;9.70;99.90;;;;;;5041189;28;20483;-29
2024/01/30 04:20:59;;;;;;;10.67;7.53;;;9.70;99.90;;;;;;5027926;28;20436;-28
2024/01/30 04:23:25;;;;;;;8.20;6.80;;;9.70;99.90;;;;;;5005337;28;20863;-32
2024/01/30 04:25:51;;;;;;;7.80;7.00;;;9.70;99.90;;;;;;5038556;28;20415;-32
2024/01/30 04:28:18;;;;;;;8.60;7.57;;;9.70;99.90;;;;;;5024814;28;20516;-28
2024/01/30 04:30:46;;;;;;;9.90;7.17;;;9.70;99.90;;;;;;5005898;28;20525;-30
2024/01/30 04:33:18;;;;;;;8.47;7.30;;;9.60;99.90;;;;;;5022731;28;20424;-26
2024/01/30 04:35:44;;;;;;;8.47;6.73;;;9.70;99.90;;;;;;5023546;28;20460;-27
2024/01/30 04:38:10;;;;;;;9.30;7.17;;;9.70;99.90;;;;;;5022236;28;20542;-32
2024/01/30 04:40:38;;;;;;;10.73;7.30;;;9.70;99.90;;;;;;5028509;28;20581;-29
2024/01/30 04:43:04;;;;;;;8.50;7.07;;;9.60;99.90;;;;;;5022390;28;21309;-30
2024/01/30 04:45:30;;;;;;;9.70;7.83;;;9.70;99.90;;;;;;5029025;28;20435;-33
2024/01/30 04:47:58;;;;;;;8.77;7.77;;;9.70;99.90;;;;;;5021674;28;20987;-31
2024/01/30 04:50:26;;;;;;;8.60;7.23;;;9.70;99.90;;;;;;5022842;28;20447;-30
2024/01/30 04:52:55;;;;;;;9.80;7.10;;;9.70;99.90;;;;;;5023138;28;20408;-31
2024/01/30 04:55:22;;;;;;;11.13;6.90;;;9.70;99.90;;;;;;5038613;28;21063;-30
2024/01/30 04:57:50;;;;;;;7.43;6.63;;;9.70;99.90;;;;;;5021189;28;20432;-31
2024/01/30 05:00:16;;;;;;;7.90;7.10;;;9.70;99.90;;;;;;5022521;28;20938;-28
2024/01/30 05:02:45;;;;;;;8.57;7.20;;;9.70;99.90;;;;;;5034412;28;20419;-26
2024/01/30 05:05:11;;;;;;;8.70;7.10;;;9.70;99.90;;;;;;5030998;28;20499;-32
2024/01/30 05:07:39;;;;;;;8.63;6.90;;;9.70;99.90;;;;;;5032007;28;20475;-29
2024/01/30 05:10:08;;;;;;;7.37;6.57;;;9.70;99.90;;;;;;5009063;28;21072;-28
2024/01/30 05:12:34;;;;;;;8.13;7.17;;;9.70;99.90;;;;;;5006160;28;20781;-30
2024/01/30 05:15:00;;;;;;;8.53;6.50;;;9.70;99.90;;;;;;5041492;28;20937;-30
2024/01/30 05:17:26;;;;;;;7.90;6.77;;;9.70;99.90;;;;;;5042242;28;20407;-32
2024/01/30 05:19:52;;;;;;;9.43;7.17;;;9.70;99.90;;;;;;5037426;28;20464;-31
2024/01/30 05:22:18;;;;;;;9.17;7.17;;;9.60;99.90;;;;;;5013629;28;20931;-35
2024/01/30 05:24:45;;;;;;;9.30;6.40;;;9.70;99.90;;;;;;5040509;28;20504;-27
2024/01/30 05:27:14;;;;;;;8.37;7.13;;;9.70;99.90;;;;;;5031850;28;20475;-30
2024/01/30 05:29:42;;;;;;;8.17;6.90;;;9.70;99.90;;;;;;5023744;28;20810;-29
2024/01/30 05:32:10;;;;;;;9.50;7.03;;;9.60;99.90;;;;;;5023520;28;20432;-32
2024/01/30 05:34:38;;;;;;;7.00;6.30;;;9.60;99.90;;;;;;5021593;28;20432;-28
2024/01/30 05:37:07;;;;;;;7.73;6.93;;;9.60;99.90;;;;;;5026939;28;20442;-32
2024/01/30 05:39:33;;;;;;;8.43;6.60;;;9.60;99.90;;;;;;5022543;28;20483;-32
2024/01/30 05:42:02;;;;;;;8.57;6.53;;;9.60;99.90;;;;;;5021027;28;20451;-26
2024/01/30 05:44:28;;;;;;;8.70;6.43;;;9.60;99.90;;;;;;5021640;28;20420;-26
2024/01/30 05:46:54;;;;;;;10.07;6.77;;;9.60;99.90;;;;;;5020443;28;20563;-32
2024/01/30 05:49:20;;;;;;;7.97;6.47;;;9.60;99.90;;;;;;5021411;28;20530;-29
2024/01/30 05:51:46;;;;;;;7.07;6.33;;;9.60;99.90;;;;;;5020345;28;20197;-30
2024/01/30 05:54:17;;;;;;;8.50;6.77;;;9.60;99.90;;;;;;5038400;28;20864;-28
2024/01/30 05:56:43;;;;;;;9.20;6.80;;;9.60;99.90;;;;;;5029085;28;20800;-30
2024/01/30 05:59:08;;;;;;;9.13;7.00;;;9.60;99.90;;;;;;5037812;28;20435;-31
2024/01/30 06:01:35;;;;;;;9.67;7.27;;;9.60;99.90;;;;;;5037659;28;20450;-28
2024/01/30 06:04:06;;;;;;;8.83;6.93;;;9.60;99.90;;;;;;5021235;28;20464;-27
2024/01/30 06:06:32;;;;;;;7.40;6.70;;;9.60;99.90;;;;;;5021235;28;20463;-34
2024/01/30 06:08:58;;;;;;;8.30;6.10;;;9.60;99.90;;;;;;5021469;28;20455;-30
2024/01/30 06:11:28;;;;;;;8.37;7.10;;;9.60;99.90;;;;;;5024058;28;20942;-30
2024/01/30 06:13:56;;;;;;;8.20;5.83;;;9.60;99.90;;;;;;5033112;28;20427;-28
2024/01/30 06:16:22;;;;;;;11.80;7.10;;;9.60;99.90;;;;;;5041311;28;20520;-26
2024/01/30 06:18:48;;;;;;;7.60;6.30;;;9.60;99.90;;;;;;5023587;28;20410;-26
2024/01/30 06:21:18;;;;;;;7.73;6.93;;;9.60;99.90;;;;;;5041460;28;20427;-33
2024/01/30 06:23:44;;;;;;;8.00;6.80;;;9.60;99.90;;;;;;5010117;28;20491;-31
2024/01/30 06:26:12;;;;;;;8.00;7.30;;;9.60;99.90;;;;;;5019274;28;20529;-30
2024/01/30 06:28:39;;;;;;;9.43;6.53;;;9.60;99.90;;;;;;5030389;28;20431;-25
2024/01/30 06:31:04;;;;;;;7.60;6.40;;;9.60;99.90;;;;;;5009434;28;20994;-28
2024/01/30 06:33:30;;;;;;;9.57;6.60;;;9.60;99.90;;;;;;5022138;28;20557;-26
2024/01/30 06:35:59;;;;;;;7.57;6.40;;;9.60;99.90;;;;;;5021536;28;20516;-30
2024/01/30 06:38:24;;;;;;;9.63;6.43;;;9.60;99.90;;;;;;5023716;28;20430;-29
2024/01/30 06:40:57;;;;;;;15.30;7.40;;;9.60;99.90;;;;;;5006959;28;20427;-30
2024/01/30 06:43:24;;;;;;;10.20;6.77;;;9.60;99.90;;;;;;5025034;28;20451;-31
2024/01/30 06:45:51;;;;;;;9.13;6.33;;;9.60;99.90;;;;;;5023629;28;20440;-33
2024/01/30 06:48:20;;;;;;;7.80;6.93;;;9.60;99.90;;;;;;5033995;28;20486;-29
2024/01/30 06:50:46;;;;;;;9.60;7.23;;;9.60;99.90;;;;;;5033533;28;20966;-32
2024/01/30 06:53:14;;;;;;;7.70;6.27;;;9.60;99.90;;;;;;5027274;28;20461;-32
2024/01/30 06:55:40;;;;;;;7.60;6.50;;;9.60;99.90;;;;;;5023274;28;21117;-33
2024/01/30 06:58:06;;;;;;;8.60;6.67;;;9.60;99.90;;;;;;5030136;28;21290;-35
2024/01/30 07:00:32;;;;;;;6.87;6.17;;;9.60;99.90;;;;;;5021047;28;20496;-34
2024/01/30 07:02:58;;;;;;;10.77;8.10;;;9.60;99.90;;;;;;5036509;28;20446;-33
2024/01/30 07:05:26;;;;;;;6.57;5.87;;;9.60;99.90;;;;;;5023603;28;20848;-28
2024/01/30 07:07:53;;;;;;;9.40;7.00;;;9.60;99.90;;;;;;5040647;28;20466;-29
2024/01/30 07:10:19;;;;;;;7.50;6.70;;;9.60;99.90;;;;;;5022869;28;20781;-26
2024/01/30 07:12:45;;;;;;;7.20;6.47;;;9.60;99.90;;;;;;5035922;28;20419;-28
2024/01/30 07:15:20;;;;;;;8.23;7.03;;;9.60;99.90;;;;;;5013394;28;20515;-30
2024/01/30 07:17:48;;;;;;;8.03;6.57;;;9.60;99.90;;;;;;5020963;28;20442;-33
2024/01/30 07:20:20;;;;;;;7.87;6.00;;;9.60;99.90;;;;;;5021257;28;20470;-30
2024/01/30 07:22:46;;;;;;;6.80;6.10;;;9.60;99.90;;;;;;5024905;28;20531;-31
2024/01/30 07:25:14;;;;;;;8.50;6.60;;;9.60;99.90;;;;;;5018546;28;20436;-32
2024/01/30 07:27:40;;;;;;;8.67;5.87;;;9.50;99.90;;;;;;5021727;28;21228;-29
2024/01/30 07:30:09;;;;;;;7.00;6.40;;;9.60;99.90;;;;;;5016034;28;20484;-31
2024/01/30 07:32:37;;;;;;;7.70;6.43;;;9.60;99.90;;;;;;5031832;28;20436;-29
2024/01/30 07:35:03;;;;;;;7.50;6.03;;;9.60;99.90;;;;;;5024051;28;20444;-32
2024/01/30 07:37:29;;;;;;;7.50;6.80;;;9.60;99.90;;;;;;5026585;28;20498;-26
2024/01/30 07:39:56;;;;;;;7.90;7.10;;;9.60;99.90;;;;;;5029492;28;20450;-28
2024/01/30 07:42:21;;;;;;;7.03;6.33;;;9.60;99.90;;;;;;5021922;28;20772;-30
2024/01/30 07:44:50;;;;;;;10.10;6.90;;;9.60;99.90;;;;;;5022586;28;20435;-27
2024/01/30 07:47:16;;;;;;;7.63;6.83;;;9.60;99.90;;;;;;5022326;28;20559;-30
2024/01/30 07:49:44;;;;;;;8.13;7.00;;;9.60;99.90;;;;;;5024027;28;20411;-31
2024/01/30 07:52:10;;;;;;;7.80;6.67;;;9.60;99.90;;;;;;5023834;28;20447;-32
2024/01/30 07:54:41;;;;;;;8.87;6.13;;;9.60;99.90;;;;;;5023965;28;20520;-32
2024/01/30 07:57:09;;;;;;;9.43;6.70;;;9.60;99.90;;;;;;5005162;28;20495;-29
2024/01/30 07:59:35;;;;;;;7.40;5.97;;;9.60;99.90;;;;;;5023813;28;20430;-26
2024/01/30 08:02:04;;;;;;;6.30;5.70;;;9.60;99.90;;;;;;5030286;28;20534;-32
2024/01/30 08:04:30;;;;;;;7.90;6.50;;;9.60;99.90;;;;;;5022126;28;20444;-29
2024/01/30 08:06:56;;;;;;;8.30;6.40;;;9.60;99.90;;;;;;5027243;28;20517;-30
2024/01/30 08:09:22;;;;;;;6.07;5.47;;;9.60;99.90;;;;;;5039901;28;20484;-30
2024/01/30 08:11:48;;;;;;;7.27;6.50;;;9.60;99.90;;;;;;5021868;28;20487;-31
2024/01/30 08:14:14;;;;;;;8.30;5.90;;;9.60;99.90;;;;;;5005592;28;20440;-29
2024/01/30 08:16:41;;;;;;;7.20;6.30;;;9.60;99.90;;;;;;5022102;28;20482;-30
2024/01/30 08:19:09;;;;;;;10.23;6.97;;;9.60;99.90;;;;;;5022868;28;20471;-32
2024/01/30 08:21:36;;;;;;;7.17;6.33;;;9.60;99.90;;;;;;5024124;28;20482;-28
2024/01/30 08:24:05;;;;;;;10.47;6.40;;;9.60;99.90;;;;;;5038371;28;20431;-28
2024/01/30 08:26:32;;;;;;;7.37;6.13;;;9.60;99.90;;;;;;4999146;28;20447;-32
2024/01/30 08:29:01;;;;;;;9.50;7.00;;;9.60;99.90;;;;;;5044403;28;20819;-34
2024/01/30 08:31:28;;;;;;;8.57;6.53;;;9.60;99.90;;;;;;5043897;28;21237;-32
2024/01/30 08:33:54;;;;;;;7.93;6.40;;;9.60;99.90;;;;;;5043472;28;20407;-34
2024/01/30 08:36:29;;;;;;;10.20;6.53;;;9.60;99.90;;;;;;5027491;28;20442;-30
2024/01/30 08:38:57;;;;;;;8.43;6.73;;;9.60;99.90;;;;;;5030777;28;20419;-27
2024/01/30 08:41:24;;;;;;;8.43;6.67;;;9.60;99.90;;;;;;5046987;28;20473;-35
2024/01/30 08:43:54;;;;;;;7.60;6.60;;;9.60;99.90;;;;;;5035101;28;20430;-33
2024/01/30 08:46:37;;;;;;;10.13;6.90;;;9.60;99.90;;;;;;5028856;28;20430;-32
2024/01/30 08:49:10;;;;;;;7.47;6.67;;;9.60;99.90;;;;;;5041213;28;20553;-35
2024/01/30 08:51:36;;;;;;;8.23;7.03;;;9.60;99.90;;;;;;5032266;28;20445;-32
2024/01/30 08:54:02;;;;;;;7.33;5.93;;;9.60;99.90;;;;;;5007339;28;20770;-34
2024/01/30 08:56:28;;;;;;;10.80;6.90;;;9.60;99.90;;;;;;5025379;28;20436;-31
2024/01/30 08:58:54;;;;;;;8.10;6.93;;;9.60;99.90;;;;;;5028710;28;20949;-32
2024/01/30 09:01:23;;;;;;;7.20;6.20;;;9.60;99.90;;;;;;5026224;28;20439;-34
2024/01/30 09:03:50;;;;;;;8.00;6.63;;;9.60;99.90;;;;;;5029723;28;20440;-34
2024/01/30 09:06:26;;;;;;;8.70;6.90;;;9.60;99.90;;;;;;5031682;28;20839;-31
2024/01/30 09:08:54;;;;;;;7.80;6.30;;;9.60;99.90;;;;;;5034106;28;20938;-29
2024/01/30 09:11:21;;;;;;;6.87;6.17;;;9.60;99.90;;;;;;5040461;28;20482;-31
2024/01/30 09:13:47;;;;;;;8.27;5.77;;;9.60;99.90;;;;;;5013614;28;20875;-36
2024/01/30 09:16:16;;;;;;;6.60;5.90;;;9.60;99.90;;;;;;5033034;28;20541;-32
2024/01/30 09:18:45;;;;;;;8.10;6.70;;;9.60;99.90;;;;;;5038172;28;20456;-31
2024/01/30 09:21:11;;;;;;;8.80;6.50;;;9.60;99.90;;;;;;5034421;28;20439;-33
2024/01/30 09:23:37;;;;;;;7.83;6.43;;;9.60;99.90;;;;;;5029138;28;21008;-31
2024/01/30 09:26:03;;;;;;;6.97;6.17;;;9.60;99.90;;;;;;5029265;28;20522;-30
2024/01/30 09:28:30;;;;;;;9.17;6.77;;;9.60;99.90;;;;;;5035073;28;20462;-31
2024/01/30 09:30:57;;;;;;;7.00;6.20;;;9.60;99.90;;;;;;5038662;28;20814;-30
2024/01/30 09:33:23;;;;;;;8.43;6.93;;;9.60;99.90;;;;;;5023471;28;20432;-28
2024/01/30 09:35:49;;;;;;;8.33;6.60;;;9.60;99.90;;;;;;5027305;28;20438;-31
2024/01/30 09:38:15;;;;;;;8.23;6.67;;;9.70;99.90;;;;;;5011741;28;20424;-29
2024/01/30 09:40:51;;;;;;;8.30;6.93;;;9.70;99.90;;;;;;5032266;28;20501;-30
2024/01/30 09:43:23;;;;;;;7.93;6.13;;;9.70;99.90;;;;;;5036433;28;21040;-28
2024/01/30 09:45:51;;;;;;;8.07;7.10;;;9.70;99.90;;;;;;5031135;28;20424;-29
2024/01/30 09:48:19;;;;;;;7.73;6.27;;;9.70;99.90;;;;;;5029470;28;20981;-31
2024/01/30 09:50:46;;;;;;;9.37;5.70;;;9.70;99.90;;;;;;5024944;28;21527;-30
2024/01/30 09:53:15;;;;;;;8.17;6.87;;;9.60;99.90;;;;;;5031748;28;20618;-34
2024/01/30 09:55:44;;;;;;;9.47;6.67;;;9.70;99.90;;;;;;5027625;28;21027;-31
2024/01/30 09:58:13;;;;;;;7.73;5.67;;;9.70;99.90;;;;;;5023830;28;20470;-32
2024/01/30 10:00:39;;;;;;;9.93;7.83;;;9.70;99.90;;;;;;5035352;28;20447;-30
2024/01/30 10:03:05;;;;;;;7.07;6.33;;;9.70;99.90;;;;;;5019179;28;20511;-30
2024/01/30 10:05:37;;;;;;;7.93;6.40;;;9.70;99.90;;;;;;4992804;28;20973;-34
2024/01/30 10:08:09;;;;;;;8.97;6.80;;;9.70;99.90;;;;;;5027608;28;20524;-28
2024/01/30 10:10:35;;;;;;;8.37;7.47;;;9.70;99.90;;;;;;5035314;28;20446;-31
2024/01/30 10:13:02;;;;;;;8.53;6.40;;;9.70;99.90;;;;;;5035768;28;20500;-31
2024/01/30 10:15:29;;;;;;;7.10;6.27;;;9.80;99.90;;;;;;5027066;28;21045;-29
2024/01/30 10:17:55;;;;;;;7.63;6.43;;;9.80;99.90;;;;;;5036796;28;20456;-34
2024/01/30 10:20:22;;;;;;;8.80;6.90;;;9.80;99.90;;;;;;5015588;28;20645;-28
2024/01/30 10:22:51;;;;;;;8.87;7.27;;;9.80;99.90;;;;;;5028737;28;20430;-29
2024/01/30 10:25:17;;;;;;;10.17;7.10;;;9.80;99.90;;;;;;5029580;28;20416;-30
2024/01/30 10:27:46;;;;;;;7.00;6.13;;;9.80;99.90;;;;;;5029604;28;20517;-30
2024/01/30 10:30:13;;;;;;;8.00;7.30;;;9.80;99.90;;;;;;5023557;28;21145;-31
2024/01/30 10:32:39;;;;;;;7.03;6.30;;;9.80;99.90;;;;;;5028218;28;20908;-32
2024/01/30 10:35:06;;;;;;;8.03;6.77;;;9.80;99.90;;;;;;5032503;28;20439;-34
2024/01/30 10:37:32;;;;;;;7.83;6.37;;;9.80;99.90;;;;;;5030993;28;20477;-30
2024/01/30 10:40:06;;;;;;;8.50;7.50;;;9.80;99.90;;;;;;5038101;28;20426;-30
2024/01/30 10:42:32;;;;;;;6.80;5.80;;;9.80;99.90;;;;;;5030451;28;20552;-31
2024/01/30 10:45:14;;;;;;;8.57;6.47;;;9.90;99.90;;;;;;5028728;28;20465;-34
2024/01/30 10:47:44;;;;;;;11.50;7.03;;;9.90;99.90;;;;;;5024914;28;20597;-29
2024/01/30 10:50:10;;;;;;;8.83;6.33;;;9.90;99.90;;;;;;5026836;28;20847;-32
2024/01/30 10:52:37;;;;;;;9.60;7.17;;;9.90;99.90;;;;;;5037279;28;20426;-29
2024/01/30 10:55:07;;;;;;;8.60;6.90;;;9.90;99.90;;;;;;5037177;28;21068;-32
2024/01/30 10:57:39;;;;;;;7.63;6.70;;;9.90;99.90;;;;;;5026278;28;20432;-30
2024/01/30 11:00:15;;;;;;;11.47;7.13;;;9.90;99.90;;;;;;5031291;28;20442;-29
2024/01/30 11:02:46;;;;;;;10.30;8.03;;;9.90;99.90;;;;;;5031343;28;20517;-33
2024/01/30 11:05:15;;;;;;;8.80;7.10;;;9.90;99.90;;;;;;5035392;28;20910;-31
2024/01/30 11:07:41;;;;;;;8.23;6.57;;;9.90;99.90;;;;;;5037250;28;20839;-31
2024/01/30 11:10:13;;;;;;;10.40;6.73;;;9.90;99.90;;;;;;5036898;28;20431;-31
2024/01/30 11:12:45;;;;;;;9.80;7.20;;;9.90;99.90;;;;;;5020532;28;20466;-31
2024/01/30 11:15:15;;;;;;;7.03;6.27;;;9.90;99.90;;;;;;5038472;28;20426;-29
2024/01/30 11:17:46;;;;;;;10.57;7.80;;;10.00;99.90;;;;;;5023568;28;20434;-32
2024/01/30 11:20:25;;;;;;;8.63;6.80;;;10.00;99.90;;;;;;5020383;28;20918;-30
2024/01/30 11:22:55;;;;;;;9.90;6.63;;;10.00;99.90;;;;;;5033795;28;20426;-30
2024/01/30 11:25:23;;;;;;;8.50;6.93;;;10.00;99.90;;;;;;5037123;28;21133;-31
2024/01/30 11:27:56;;;;;;;10.13;6.90;;;10.00;99.90;;;;;;5041187;28;20477;-30
2024/01/30 11:30:28;;;;;;;9.70;6.60;;;10.00;99.90;;;;;;5020269;28;20707;-28
2024/01/30 11:33:14;;;;;;;9.50;7.30;;;10.00;99.90;;;;;;5023299;28;20417;-33
2024/01/30 11:35:44;;;;;;;8.10;7.17;;;10.00;99.90;;;;;;5036604;28;20518;-30
2024/01/30 11:38:15;;;;;;;10.80;7.20;;;10.00;99.90;;;;;;5035147;28;20480;-30
2024/01/30 11:40:44;;;;;;;8.87;6.87;;;10.10;99.90;;;;;;5027575;28;20451;-34
2024/01/30 11:43:16;;;;;;;9.57;6.63;;;10.10;99.90;;;;;;5031265;28;20851;-29
2024/01/30 11:45:44;;;;;;;8.07;6.57;;;10.10;99.90;;;;;;5028912;28;20509;-32
2024/01/30 11:48:13;;;;;;;8.87;6.87;;;10.10;99.90;;;;;;5032329;28;20913;-35
2024/01/30 11:50:44;;;;;;;8.70;7.27;;;10.10;99.90;;;;;;5021366;28;20435;-32
2024/01/30 11:53:10;;;;;;;7.80;6.60;;;10.10;99.90;;;;;;5031210;28;20948;-33
2024/01/30 11:55:39;;;;;;;9.77;7.33;;;10.10;99.90;;;;;;5034423;28;20437;-30
2024/01/30 11:58:05;;;;;;;10.17;6.50;;;10.10;99.90;;;;;;5027397;28;21287;-33
2024/01/30 12:00:36;;;;;;;9.23;6.43;;;10.10;99.90;;;;;;5030707;28;20497;-30
2024/01/30 12:03:06;;;;;;;7.23;6.40;;;10.20;99.90;;;;;;5025441;28;21037;-32
2024/01/30 12:05:36;;;;;;;7.13;6.13;;;10.20;99.90;;;;;;5023573;28;20504;-31
2024/01/30 12:08:02;;;;;;;13.83;6.90;;;10.20;99.90;;;;;;5027025;28;20467;-33
2024/01/30 12:10:28;;;;;;;8.90;7.17;;;10.20;99.90;;;;;;5030208;28;20485;-33
2024/01/30 12:12:57;;;;;;;10.70;6.60;;;10.20;99.90;;;;;;5031045;28;21006;-31
2024/01/30 12:15:29;;;;;;;8.33;7.13;;;10.20;99.90;;;;;;5038850;28;20423;-31
2024/01/30 12:18:07;;;;;;;12.57;7.10;;;10.20;99.90;;;;;;5030333;28;20927;-29
2024/01/30 12:20:33;;;;;;;8.13;5.80;;;10.20;99.90;;;;;;5032266;28;20489;-33
2024/01/30 12:23:01;;;;;;;7.27;6.30;;;10.20;99.90;;;;;;5026513;28;20418;-31
2024/01/30 12:25:32;;;;;;;11.30;7.23;;;10.20;99.90;;;;;;5036499;28;20423;-34
2024/01/30 12:27:58;;;;;;;8.93;6.90;;;10.20;99.90;;;;;;5031827;28;20524;-30
2024/01/30 12:30:24;;;;;;;7.83;7.00;;;10.20;99.90;;;;;;5037545;28;20447;-31
2024/01/30 12:32:55;;;;;;;9.20;6.70;;;10.20;99.90;;;;;;5032374;28;20506;-29
2024/01/30 12:35:23;;;;;;;10.37;7.77;;;10.20;99.90;;;;;;5038505;28;20864;-34
2024/01/30 12:37:51;;;;;;;12.60;5.90;;;10.30;99.90;;;;;;5014176;28;20449;-33
2024/01/30 12:40:20;;;;;;;8.20;5.90;;;10.30;99.90;;;;;;5035093;28;20430;-33
2024/01/30 12:42:49;;;;;;;8.47;6.67;;;10.30;99.90;;;;;;5030431;28;20451;-34
2024/01/30 12:45:16;;;;;;;9.37;7.37;;;10.30;99.90;;;;;;5038498;28;21204;-32
2024/01/30 12:47:45;;;;;;;7.97;5.40;;;10.30;99.90;;;;;;5032037;28;20486;-34
2024/01/30 12:50:12;;;;;;;8.00;6.30;;;10.30;99.90;;;;;;5031242;28;20719;-32
2024/01/30 12:52:45;;;;;;;9.93;6.80;;;10.30;99.90;;;;;;5030250;28;20867;-28
2024/01/30 12:55:13;;;;;;;7.50;6.50;;;10.30;99.90;;;;;;5031730;28;20899;-29
2024/01/30 12:57:39;;;;;;;8.80;5.83;;;10.30;99.90;;;;;;5014038;28;20440;-32
2024/01/30 13:00:08;;;;;;;8.80;6.20;;;10.30;99.90;;;;;;5031526;28;21186;-30